createdAt,value
2023-04-10T00:01:12.381Z,12.80
2023-04-10T00:03:40.029Z,12.80
2023-04-10T00:06:11.395Z,12.80
2023-04-10T00:08:38.916Z,12.70
2023-04-10T00:11:09.637Z,12.70
2023-04-10T00:13:40.387Z,12.70
2023-04-10T00:16:27.592Z,12.70
2023-04-10T00:18:55.355Z,12.60
2023-04-10T00:21:23.370Z,12.60
2023-04-10T00:23:51.098Z,12.60
2023-04-10T00:26:20.966Z,12.50
2023-04-10T00:28:52.176Z,12.50
2023-04-10T00:31:20.355Z,12.50
2023-04-10T00:33:47.995Z,12.40
2023-04-10T00:36:16.224Z,12.40
2023-04-10T00:38:43.879Z,12.40
2023-04-10T00:41:11.758Z,12.40
2023-04-10T00:43:39.457Z,12.40
2023-04-10T00:46:12.744Z,12.40
2023-04-10T00:48:41.024Z,12.30
2023-04-10T00:51:10.004Z,12.30
2023-04-10T00:53:37.824Z,12.30
2023-04-10T00:56:06.825Z,12.30
2023-04-10T00:58:34.344Z,12.30
2023-04-10T01:01:02.455Z,12.40
2023-04-10T01:03:30.440Z,12.30
2023-04-10T01:06:10.754Z,12.30
2023-04-10T01:08:45.398Z,12.30
2023-04-10T01:11:44.410Z,12.30
2023-04-10T01:14:32.527Z,12.30
2023-04-10T01:17:13.090Z,12.30
2023-04-10T01:20:05.790Z,12.20
2023-04-10T01:22:56.595Z,12.20
2023-04-10T01:26:00.363Z,12.20
2023-04-10T01:29:00.704Z,12.10
2023-04-10T01:31:36.147Z,12.10
2023-04-10T01:34:07.781Z,12.00
2023-04-10T01:36:44.880Z,12.00
2023-04-10T01:39:13.208Z,12.00
2023-04-10T01:41:44.531Z,12.00
2023-04-10T01:44:15.587Z,11.90
2023-04-10T01:46:44.844Z,11.90
2023-04-10T01:49:14.094Z,11.90
2023-04-10T01:51:42.862Z,11.90
2023-04-10T01:54:12.639Z,11.90
2023-04-10T01:56:42.033Z,11.80
2023-04-10T01:59:10.805Z,11.80
2023-04-10T02:01:38.504Z,11.80
2023-04-10T02:04:07.064Z,11.80
2023-04-10T02:06:57.572Z,11.80
2023-04-10T02:09:47.157Z,11.70
2023-04-10T02:12:21.825Z,11.70
2023-04-10T02:14:50.905Z,11.70
2023-04-10T02:17:22.762Z,11.60
2023-04-10T02:19:55.167Z,11.60
2023-04-10T02:22:24.583Z,11.60
2023-04-10T02:24:53.180Z,11.50
2023-04-10T02:27:35.110Z,11.50
2023-04-10T02:30:06.718Z,11.50
2023-04-10T02:32:35.845Z,11.40
2023-04-10T02:35:04.073Z,11.40
2023-04-10T02:37:33.237Z,11.40
2023-04-10T02:40:01.492Z,11.30
2023-04-10T02:42:33.674Z,11.40
2023-04-10T02:45:02.204Z,11.40
2023-04-10T02:47:32.588Z,11.30
2023-04-10T02:50:00.082Z,11.30
2023-04-10T02:52:29.421Z,11.30
2023-04-10T02:54:57.157Z,11.20
2023-04-10T03:00:08.320Z,11.20
2023-04-10T03:02:44.345Z,11.10
2023-04-10T03:05:13.807Z,11.10
2023-04-10T03:07:41.829Z,11.10
2023-04-10T03:10:10.381Z,11.00
2023-04-10T03:12:38.125Z,11.00
2023-04-10T03:15:07.095Z,11.00
2023-04-10T03:17:34.742Z,10.90
2023-04-10T03:20:02.618Z,11.00
2023-04-10T03:22:33.211Z,10.90
2023-04-10T03:25:01.915Z,10.80
2023-04-10T03:27:32.406Z,10.70
2023-04-10T03:30:00.979Z,10.80
2023-04-10T03:32:33.564Z,10.70
2023-04-10T03:35:01.445Z,10.80
2023-04-10T03:37:28.809Z,10.70
2023-04-10T03:39:56.979Z,10.70
2023-04-10T03:42:24.760Z,10.70
2023-04-10T03:44:52.442Z,10.70
2023-04-10T03:47:20.868Z,10.70
2023-04-10T03:49:50.222Z,10.70
2023-04-10T03:52:17.821Z,10.70
2023-04-10T03:54:46.473Z,10.70
2023-04-10T03:57:15.848Z,10.60
2023-04-10T03:59:43.896Z,10.60
2023-04-10T04:02:12.818Z,10.60
2023-04-10T04:04:42.489Z,10.60
2023-04-10T04:07:23.857Z,10.60
2023-04-10T04:10:02.841Z,10.60
2023-04-10T04:12:44.675Z,10.50
2023-04-10T04:15:30.666Z,10.50
2023-04-10T04:18:01.130Z,10.40
2023-04-10T04:20:39.955Z,10.40
2023-04-10T04:23:14.828Z,10.40
2023-04-10T04:25:52.872Z,10.40
2023-04-10T04:28:25.269Z,10.40
2023-04-10T04:30:57.931Z,10.40
2023-04-10T04:33:27.193Z,10.40
2023-04-10T04:36:00.298Z,10.40
2023-04-10T04:38:38.326Z,10.40
2023-04-10T04:41:13.827Z,10.40
2023-04-10T04:43:43.168Z,10.40
2023-04-10T04:46:19.087Z,10.40
2023-04-10T04:48:54.143Z,10.40
2023-04-10T04:51:26.442Z,10.30
2023-04-10T04:53:56.080Z,10.30
2023-04-10T04:56:31.625Z,10.30
2023-04-10T04:59:01.277Z,10.30
2023-04-10T05:01:38.837Z,10.30
2023-04-10T05:04:11.896Z,10.40
2023-04-10T05:06:56.558Z,10.30
2023-04-10T05:09:25.923Z,10.30
2023-04-10T05:11:56.010Z,10.30
2023-04-10T05:14:39.374Z,10.30
2023-04-10T05:17:25.270Z,10.30
2023-04-10T05:19:54.756Z,10.30
2023-04-10T05:22:27.978Z,10.40
2023-04-10T05:25:14.170Z,10.40
2023-04-10T05:27:43.963Z,10.40
2023-04-10T05:30:19.827Z,10.40
2023-04-10T05:33:06.100Z,10.40
2023-04-10T05:35:35.623Z,10.50
2023-04-10T05:38:14.038Z,10.50
2023-04-10T05:40:51.121Z,10.50
2023-04-10T05:43:45.310Z,10.50
2023-04-10T05:46:15.942Z,10.60
2023-04-10T05:48:51.290Z,10.60
2023-04-10T05:51:37.575Z,10.60
2023-04-10T05:54:09.743Z,10.70
2023-04-10T05:56:55.696Z,10.70
2023-04-10T05:59:28.329Z,10.70
2023-04-10T06:02:03.872Z,10.70
2023-04-10T06:04:31.803Z,10.80
2023-04-10T06:07:00.153Z,10.80
2023-04-10T06:09:27.752Z,10.90
2023-04-10T06:11:55.372Z,10.90
2023-04-10T06:14:23.408Z,11.00
2023-04-10T06:16:52.570Z,11.00
2023-04-10T06:19:19.951Z,11.10
2023-04-10T06:21:47.823Z,11.10
2023-04-10T06:24:17.125Z,11.20
2023-04-10T06:26:46.657Z,11.20
2023-04-10T06:29:14.595Z,11.30
2023-04-10T06:31:42.416Z,11.30
2023-04-10T06:34:10.025Z,11.40
2023-04-10T06:36:38.430Z,11.40
2023-04-10T06:39:06.815Z,11.50
2023-04-10T06:41:34.695Z,11.60
2023-04-10T06:44:09.792Z,11.60
2023-04-10T06:46:37.709Z,11.70
2023-04-10T06:49:05.249Z,11.70
2023-04-10T06:51:36.154Z,11.80
2023-04-10T06:54:03.739Z,11.80
2023-04-10T06:56:31.599Z,11.90
2023-04-10T06:58:59.361Z,11.90
2023-04-10T07:01:27.396Z,12.00
2023-04-10T07:03:55.252Z,12.00
2023-04-10T07:06:22.993Z,12.10
2023-04-10T07:08:51.832Z,12.20
2023-04-10T07:11:20.245Z,12.30
2023-04-10T07:13:47.932Z,12.30
2023-04-10T07:16:18.422Z,12.40
2023-04-10T07:18:47.523Z,12.50
2023-04-10T07:21:15.262Z,12.50
2023-04-10T07:23:45.055Z,12.60
2023-04-10T07:26:25.581Z,12.60
2023-04-10T07:28:54.323Z,12.70
2023-04-10T07:31:23.393Z,12.80
2023-04-10T07:33:55.387Z,12.80
2023-04-10T07:36:23.293Z,12.90
2023-04-10T07:38:51.139Z,13.00
2023-04-10T07:41:18.881Z,13.10
2023-04-10T07:43:46.793Z,13.10
2023-04-10T07:46:14.544Z,13.10
2023-04-10T07:48:42.374Z,13.10
2023-04-10T07:51:10.049Z,13.10
2023-04-10T07:53:37.703Z,13.20
2023-04-10T07:56:06.437Z,13.30
2023-04-10T07:58:34.211Z,13.30
2023-04-10T08:01:03.854Z,13.40
2023-04-10T08:03:31.506Z,13.50
2023-04-10T08:05:59.390Z,13.50
2023-04-10T08:08:28.505Z,13.60
2023-04-10T08:10:56.154Z,13.70
2023-04-10T08:13:24.354Z,13.70
2023-04-10T08:15:52.722Z,13.70
2023-04-10T08:18:24.239Z,13.80
2023-04-10T08:20:52.151Z,13.90
2023-04-10T08:23:21.035Z,13.90
2023-04-10T08:25:49.017Z,14.00
2023-04-10T08:28:16.597Z,14.00
2023-04-10T08:30:44.001Z,14.10
2023-04-10T08:33:15.450Z,14.20
2023-04-10T08:35:43.942Z,14.20
2023-04-10T08:38:14.458Z,14.20
2023-04-10T08:40:41.118Z,14.20
2023-04-10T08:43:09.214Z,14.20
2023-04-10T08:45:40.836Z,14.20
2023-04-10T08:48:10.822Z,14.20
2023-04-10T08:50:42.478Z,14.20
2023-04-10T08:53:14.837Z,14.20
2023-04-10T08:55:43.166Z,14.30
2023-04-10T08:58:13.712Z,14.30
2023-04-10T09:00:41.049Z,14.40
2023-04-10T09:03:13.849Z,14.40
2023-04-10T09:05:41.169Z,14.40
2023-04-10T09:08:10.056Z,14.40
2023-04-10T09:10:41.418Z,14.40
2023-04-10T09:13:09.061Z,14.40
2023-04-10T09:16:01.511Z,14.40
2023-04-10T09:18:43.860Z,14.50
2023-04-10T09:21:12.805Z,14.50
2023-04-10T09:23:42.277Z,14.50
2023-04-10T09:26:28.211Z,14.60
2023-04-10T09:28:58.182Z,14.50
2023-04-10T09:31:32.103Z,14.50
2023-04-10T09:34:12.119Z,14.40
2023-04-10T09:36:42.698Z,14.40
2023-04-10T09:39:12.653Z,14.40
2023-04-10T09:41:55.128Z,14.60
2023-04-10T09:44:31.519Z,14.60
2023-04-10T09:47:18.643Z,14.60
2023-04-10T09:49:50.781Z,14.60
2023-04-10T09:52:22.391Z,14.70
2023-04-10T09:54:49.997Z,14.80
2023-04-10T09:57:24.468Z,14.90
2023-04-10T09:59:53.880Z,15.00
2023-04-10T10:02:24.220Z,15.00
2023-04-10T10:04:53.070Z,15.00
2023-04-10T10:07:23.618Z,15.00
2023-04-10T10:09:52.943Z,15.10
2023-04-10T10:12:26.844Z,15.20
2023-04-10T10:15:10.414Z,15.30
2023-04-10T10:17:48.556Z,15.40
2023-04-10T10:20:19.054Z,15.50
2023-04-10T10:22:47.987Z,15.60
2023-04-10T10:25:17.039Z,15.60
2023-04-10T10:27:47.042Z,15.70
2023-04-10T10:30:28.870Z,15.70
2023-04-10T10:32:47.349Z,15.80
2023-04-10T10:35:16.198Z,15.80
2023-04-10T10:37:46.155Z,15.90
2023-04-10T10:40:20.527Z,15.90
2023-04-10T10:43:01.312Z,16.00
2023-04-10T10:45:34.624Z,16.10
2023-04-10T10:48:02.470Z,16.10
2023-04-10T10:50:59.449Z,16.20
2023-04-10T10:53:40.647Z,16.20
2023-04-10T10:56:24.317Z,16.10
2023-04-10T10:58:59.815Z,16.10
2023-04-10T11:01:28.475Z,16.10
2023-04-10T11:03:57.464Z,16.10
2023-04-10T11:06:44.763Z,16.10
2023-04-10T11:09:33.402Z,16.20
2023-04-10T11:12:00.985Z,16.30
2023-04-10T11:14:34.755Z,16.30
2023-04-10T11:17:03.334Z,16.50
2023-04-10T11:19:35.361Z,16.50
2023-04-10T11:22:08.937Z,16.60
2023-04-10T11:25:00.589Z,16.60
2023-04-10T11:27:44.862Z,16.70
2023-04-10T11:30:33.938Z,16.70
2023-04-10T11:33:03.023Z,16.80
2023-04-10T11:35:32.048Z,16.80
2023-04-10T11:38:12.970Z,16.80
2023-04-10T11:40:58.224Z,16.80
2023-04-10T11:43:27.830Z,16.90
2023-04-10T11:46:06.495Z,16.90
2023-04-10T11:48:34.390Z,17.00
2023-04-10T11:51:13.771Z,17.10
2023-04-10T11:53:42.438Z,17.10
2023-04-10T11:56:17.844Z,17.10
2023-04-10T11:58:45.787Z,17.20
2023-04-10T12:01:16.027Z,17.20
2023-04-10T12:03:44.870Z,17.20
2023-04-10T12:06:14.042Z,17.30
2023-04-10T12:08:46.295Z,17.30
2023-04-10T12:11:14.093Z,17.40
2023-04-10T12:13:41.688Z,17.50
2023-04-10T12:16:11.046Z,17.50
2023-04-10T12:18:42.775Z,17.60
2023-04-10T12:21:10.431Z,17.70
2023-04-10T12:23:39.482Z,17.80
2023-04-10T12:26:16.037Z,17.70
2023-04-10T12:28:58.130Z,17.70
2023-04-10T12:31:31.729Z,17.80
2023-04-10T12:34:01.257Z,17.80
2023-04-10T12:36:30.534Z,17.80
2023-04-10T12:39:05.893Z,17.90
2023-04-10T12:41:34.602Z,18.10
2023-04-10T12:44:14.547Z,18.20
2023-04-10T12:46:43.533Z,18.30
2023-04-10T12:49:16.957Z,18.30
2023-04-10T12:51:52.938Z,18.30
2023-04-10T12:54:35.533Z,18.30
2023-04-10T12:57:04.569Z,18.20
2023-04-10T12:59:33.237Z,18.30
2023-04-10T13:02:00.985Z,18.40
2023-04-10T13:04:30.697Z,18.50
2023-04-10T13:06:58.817Z,18.70
2023-04-10T13:09:26.714Z,18.90
2023-04-10T13:11:54.929Z,19.00
2023-04-10T13:14:22.946Z,19.10
2023-04-10T13:16:50.601Z,19.10
2023-04-10T13:19:18.467Z,19.00
2023-04-10T13:21:46.200Z,19.10
2023-04-10T13:24:15.968Z,19.20
2023-04-10T13:26:43.064Z,19.40
2023-04-10T13:29:10.667Z,19.70
2023-04-10T13:31:38.342Z,20.00
2023-04-10T13:34:06.285Z,20.30
2023-04-10T13:36:34.126Z,20.40
2023-04-10T13:39:03.016Z,20.30
2023-04-10T13:41:30.747Z,20.00
2023-04-10T13:43:58.386Z,19.60
2023-04-10T13:46:26.456Z,19.70
2023-04-10T13:48:53.916Z,19.80
2023-04-10T13:51:22.065Z,19.80
2023-04-10T13:53:49.954Z,20.00
2023-04-10T13:56:17.566Z,20.20
2023-04-10T13:58:47.033Z,20.20
2023-04-10T14:01:14.605Z,20.30
2023-04-10T14:03:42.701Z,20.60
2023-04-10T14:06:13.188Z,21.00
2023-04-10T14:08:41.413Z,21.30
2023-04-10T14:11:08.972Z,21.60
2023-04-10T14:13:36.734Z,21.60
2023-04-10T14:16:05.094Z,21.60
2023-04-10T14:18:32.876Z,21.80
2023-04-10T14:21:00.394Z,22.00
2023-04-10T14:23:27.694Z,22.10
2023-04-10T14:25:55.476Z,22.20
2023-04-10T14:28:23.212Z,22.10
2023-04-10T14:30:52.166Z,21.90
2023-04-10T14:33:20.276Z,21.90
2023-04-10T14:35:48.353Z,22.10
2023-04-10T14:38:16.821Z,22.40
2023-04-10T14:40:46.146Z,22.60
2023-04-10T14:43:13.998Z,22.80
2023-04-10T14:45:41.826Z,22.30
2023-04-10T14:48:10.184Z,22.30
2023-04-10T14:50:37.925Z,22.20
2023-04-10T14:53:06.390Z,22.20
2023-04-10T14:55:34.283Z,22.40
2023-04-10T14:58:03.652Z,22.70
2023-04-10T15:00:31.543Z,23.10
2023-04-10T15:02:59.129Z,23.30
2023-04-10T15:05:28.227Z,23.50
2023-04-10T15:07:56.096Z,23.50
2023-04-10T15:10:27.421Z,23.70
2023-04-10T15:12:55.206Z,24.10
2023-04-10T15:15:22.603Z,24.40
2023-04-10T15:17:50.128Z,24.60
2023-04-10T15:20:17.986Z,24.70
2023-04-10T15:22:45.674Z,24.40
2023-04-10T15:25:13.284Z,24.60
2023-04-10T15:27:42.053Z,25.00
2023-04-10T15:30:10.386Z,25.30
2023-04-10T15:32:38.607Z,25.60
2023-04-10T15:35:07.344Z,26.10
2023-04-10T15:37:35.765Z,26.10
2023-04-10T15:40:05.338Z,26.10
2023-04-10T15:42:34.380Z,26.40
2023-04-10T15:45:03.608Z,26.50
2023-04-10T15:47:31.234Z,27.10
2023-04-10T15:49:59.270Z,27.80
2023-04-10T15:52:30.443Z,28.30
2023-04-10T15:54:58.646Z,28.30
2023-04-10T15:57:25.867Z,28.40
2023-04-10T15:59:58.339Z,28.50
2023-04-10T16:02:26.906Z,27.90
2023-04-10T16:04:55.028Z,27.10
2023-04-10T16:07:22.555Z,26.40
2023-04-10T16:09:51.961Z,25.80
2023-04-10T16:12:19.708Z,25.30
2023-04-10T16:14:47.506Z,25.40
2023-04-10T16:17:15.511Z,25.40
2023-04-10T16:19:43.071Z,25.50
2023-04-10T16:22:10.931Z,25.60
2023-04-10T16:24:39.072Z,25.70
2023-04-10T16:27:08.587Z,25.80
2023-04-10T16:29:36.414Z,25.70
2023-04-10T16:32:15.874Z,25.60
2023-04-10T16:34:47.429Z,25.00
2023-04-10T16:37:16.102Z,24.60
2023-04-10T16:39:49.956Z,24.30
2023-04-10T16:42:18.207Z,23.70
2023-04-10T16:44:48.410Z,23.40
2023-04-10T16:47:16.080Z,23.00
2023-04-10T16:49:48.658Z,22.70
2023-04-10T16:52:20.014Z,22.40
2023-04-10T16:54:47.891Z,22.00
2023-04-10T16:57:15.640Z,21.60
2023-04-10T16:59:44.477Z,21.50
2023-04-10T17:02:12.415Z,21.30
2023-04-10T17:04:42.410Z,21.20
2023-04-10T17:07:09.878Z,21.10
2023-04-10T17:09:38.655Z,21.00
2023-04-10T17:12:15.057Z,20.80
2023-04-10T17:14:42.691Z,20.60
2023-04-10T17:17:10.380Z,20.40
2023-04-10T17:19:41.939Z,20.20
2023-04-10T17:22:13.467Z,20.00
2023-04-10T17:24:43.778Z,19.90
2023-04-10T17:27:11.566Z,19.80
2023-04-10T17:29:40.617Z,19.70
2023-04-10T17:32:10.505Z,19.60
2023-04-10T17:34:37.972Z,19.50
2023-04-10T17:37:06.036Z,19.40
2023-04-10T17:39:33.340Z,19.30
2023-04-10T17:42:04.802Z,19.30
2023-04-10T17:44:32.267Z,19.20
2023-04-10T17:46:59.948Z,19.10
2023-04-10T17:49:27.891Z,19.10
2023-04-10T17:51:55.402Z,19.00
2023-04-10T17:54:22.923Z,19.00
2023-04-10T17:56:55.311Z,18.90
2023-04-10T17:59:22.815Z,18.80
2023-04-10T18:01:52.701Z,18.70
2023-04-10T18:04:20.446Z,18.60
2023-04-10T18:06:48.010Z,18.50
2023-04-10T18:09:15.613Z,18.40
2023-04-10T18:11:43.420Z,18.30
2023-04-10T18:14:11.143Z,18.20
2023-04-10T18:16:45.501Z,18.10
2023-04-10T18:19:19.931Z,18.00
2023-04-10T18:21:47.956Z,17.90
2023-04-10T18:24:16.213Z,17.80
2023-04-10T18:26:43.683Z,17.70
2023-04-10T18:29:11.251Z,17.60
2023-04-10T18:31:39.319Z,17.50
2023-04-10T18:34:08.520Z,17.40
2023-04-10T18:36:36.801Z,17.30
2023-04-10T18:39:14.862Z,17.30
2023-04-10T18:41:42.579Z,17.20
2023-04-10T18:44:10.340Z,17.10
2023-04-10T18:46:39.239Z,17.00
2023-04-10T18:49:07.423Z,17.00
2023-04-10T18:51:45.220Z,17.00
2023-04-10T18:54:12.749Z,16.90
2023-04-10T18:56:40.825Z,16.80
2023-04-10T18:59:16.852Z,16.80
2023-04-10T19:01:46.128Z,16.70
2023-04-10T19:04:14.370Z,16.70
2023-04-10T19:06:44.289Z,16.60
2023-04-10T19:09:14.506Z,16.60
2023-04-10T19:11:43.404Z,16.50
2023-04-10T19:14:10.936Z,16.50
2023-04-10T19:16:39.156Z,16.50
2023-04-10T19:19:08.673Z,16.40
2023-04-10T19:21:37.109Z,16.30
2023-04-10T19:24:08.366Z,16.30
2023-04-10T19:26:36.023Z,16.20
2023-04-10T19:29:09.209Z,16.20
2023-04-10T19:31:38.216Z,16.20
2023-04-10T19:34:08.019Z,16.20
2023-04-10T19:36:36.895Z,16.10
2023-04-10T19:39:05.681Z,16.10
2023-04-10T19:41:34.802Z,16.00
2023-04-10T19:44:04.858Z,16.00
2023-04-10T19:46:32.611Z,16.00
2023-04-10T19:49:01.149Z,16.00
2023-04-10T19:51:28.709Z,15.90
2023-04-10T19:53:58.237Z,15.90
2023-04-10T19:56:28.031Z,15.90
2023-04-10T19:58:55.802Z,15.90
2023-04-10T20:01:24.512Z,15.80
2023-04-10T20:03:53.225Z,15.80
2023-04-10T20:06:22.013Z,15.80
2023-04-10T20:08:49.764Z,15.70
2023-04-10T20:11:17.403Z,15.70
2023-04-10T20:13:45.696Z,15.70
2023-04-10T20:16:13.033Z,15.70
2023-04-10T20:18:41.616Z,15.70
2023-04-10T20:21:09.339Z,15.60
2023-04-10T20:23:38.098Z,15.60
2023-04-10T20:26:06.006Z,15.60
2023-04-10T20:28:33.463Z,15.60
2023-04-10T20:31:01.310Z,15.50
2023-04-10T20:33:28.905Z,15.50
2023-04-10T20:35:56.688Z,15.50
2023-04-10T20:38:24.456Z,15.40
2023-04-10T20:40:52.330Z,15.40
2023-04-10T20:43:19.651Z,15.40
2023-04-10T20:45:47.599Z,15.40
2023-04-10T20:48:15.053Z,15.30
2023-04-10T20:50:44.407Z,15.30
2023-04-10T20:53:16.837Z,15.20
2023-04-10T20:55:44.265Z,15.20
2023-04-10T20:58:12.073Z,15.20
2023-04-10T21:00:41.409Z,15.20
2023-04-10T21:03:09.070Z,15.20
2023-04-10T21:05:42.076Z,15.10
2023-04-10T21:08:10.716Z,15.10
2023-04-10T21:10:43.004Z,15.00
2023-04-10T21:13:13.157Z,15.00
2023-04-10T21:15:41.843Z,14.90
2023-04-10T21:18:10.076Z,14.90
2023-04-10T21:20:37.773Z,14.90
2023-04-10T21:23:05.804Z,14.90
2023-04-10T21:25:34.023Z,14.90
2023-04-10T21:28:06.559Z,14.90
2023-04-10T21:30:34.472Z,14.90
2023-04-10T21:33:02.551Z,14.90
2023-04-10T21:35:30.228Z,14.90
2023-04-10T21:38:01.370Z,14.90
2023-04-10T21:40:30.830Z,14.90
2023-04-10T21:42:58.477Z,14.90
2023-04-10T21:45:26.824Z,14.90
2023-04-10T21:47:54.651Z,14.90
2023-04-10T21:50:22.293Z,14.90
2023-04-10T21:52:50.028Z,14.90
2023-04-10T21:55:18.339Z,14.90
2023-04-10T21:57:46.184Z,14.90
2023-04-10T22:00:15.016Z,14.80
2023-04-10T22:02:42.599Z,14.80
2023-04-10T22:05:11.871Z,14.80
2023-04-10T22:07:39.583Z,14.80
2023-04-10T22:10:09.080Z,14.80
2023-04-10T22:12:41.093Z,14.80
2023-04-10T22:15:11.386Z,14.80
2023-04-10T22:17:39.062Z,14.80
2023-04-10T22:20:07.447Z,14.70
2023-04-10T22:22:34.852Z,14.70
2023-04-10T22:25:02.601Z,14.70
2023-04-10T22:27:29.993Z,14.60
2023-04-10T22:32:27.484Z,14.60
2023-04-10T22:34:55.011Z,14.60
2023-04-10T22:37:22.827Z,14.60
2023-04-10T22:39:50.664Z,14.60
2023-04-10T22:42:19.002Z,14.50
2023-04-10T22:44:46.397Z,14.60
2023-04-10T22:47:14.086Z,14.50
2023-04-10T22:49:41.513Z,14.50
2023-04-10T22:52:09.277Z,14.50
2023-04-10T22:54:37.012Z,14.40
2023-04-10T22:57:04.900Z,14.40
2023-04-10T22:59:32.373Z,14.40
2023-04-10T23:02:00.012Z,14.40
2023-04-10T23:04:27.840Z,14.40
2023-04-10T23:06:57.852Z,14.40
2023-04-10T23:09:25.979Z,14.40
2023-04-10T23:11:54.008Z,14.40
2023-04-10T23:14:23.114Z,14.40
2023-04-10T23:16:50.864Z,14.40
2023-04-10T23:19:19.519Z,14.40
2023-04-10T23:21:47.038Z,14.40
2023-04-10T23:24:14.412Z,14.40
2023-04-10T23:26:41.961Z,14.40
2023-04-10T23:29:09.637Z,14.30
2023-04-10T23:31:37.220Z,14.30
2023-04-10T23:34:04.972Z,14.30
2023-04-10T23:36:32.989Z,14.30
2023-04-10T23:39:00.976Z,14.20
2023-04-10T23:41:29.106Z,14.20
2023-04-10T23:43:58.567Z,14.20
2023-04-10T23:46:26.596Z,14.20
2023-04-10T23:48:55.041Z,14.10
2023-04-10T23:51:23.016Z,14.10
2023-04-10T23:53:50.255Z,14.10
2023-04-10T23:56:18.284Z,14.10
2023-04-10T23:58:45.952Z,14.00
